Main page
METAR-TAF:

METAR-TAF

Airports :

Damascus, Syria

Damascus International Airport

latitude: 33-25N, longitude: 036-31E, elevation: 608 m

Current weather observation

The report was made 1 hour and 0 minutes ago, at 03:00 UTC
Wind 4 kt from the Southwest
Temperature 9°C
Humidity 49%
Pressure 1013 hPa
Visibility 10 km or more
no clouds below 1500 m and no cumulonimbus

METAR: OSDI 240300Z 23004KT CAVOK 09/M01 Q1013

Time: 07:00 (04:00 UTC)

Forecast

The report was made 6 hours and 0 minutes ago, at 22:00 UTC
Forecast valid from 24 at 00 UTC to 25 at 06 UTC
Wind 3 kt from variable directions
Visibility 10 km or more
no clouds below 1500 m and no cumulonimbus
Temporary
from 24 at 09 UTC to 24 at 18 UTC
Wind 20 kt from the South/Southeast
Visibility: 7000 m
Few clouds at a height of 3000 ft
Scattered clouds at a height of 10000 ft

TAF: OSDI 232200Z 2400/2506 VRB03KT CAVOK TEMPO 2409/2418 16020KT 7000 FEW030 SCT100

Weather observations and forecasts of more than 4000 airports (METAR and TAF reports).

The available stations are represented by yellow and red dots on the map.

Hover mouse over dot to see the name of the station.

Then click to see weather observations and forecasts.

To change the map : click on the green buttons with a black cross to zoom in, on the green button with a dash to zoom out, or on the green arrows for adjacent maps.


METAR-TAF: